Bhera Weather



Bhera's Current Weather

Temprature 41.66o clear sky

clear sky

Rain: 0 %

Min Temprature41.66o
Max Temprature41.66o
Humidity25
Wind Speed1.08 m/h
Sun Rise05:17:12
Sun Set19:12:13
Current Time: 24-Jul-2021 14:52:30
Lat/Lon: 32.4832, 72.9097




Bhera's Geo Location



Bhera's Weather Forecast

Time Overall Temp Min Temp Max Temp Humidity Wind Speed Rain
24-Jul-2021 (Sat)
17:00:00 clear sky 41.340 41.340 41.490 25 2.19 m/h 0 %
20:00:00 clear sky 39.500 38.620 39.500 28 0.67 m/h 0 %
23:00:00 clear sky 37.110 37.110 37.110 31 0.2 m/h 0 %
25-Jul-2021 (Sun)
02:00:00 clear sky 35.090 35.090 35.090 38 0.59 m/h 0 %
05:00:00 scattered clouds 33.800 33.800 33.800 46 1.1 m/h 0 %
08:00:00 overcast clouds 36.780 36.780 36.780 40 2.06 m/h 0 %
11:00:00 broken clouds 40.840 40.840 40.840 30 2.51 m/h 0 %
14:00:00 clear sky 43.430 43.430 43.430 23 1.46 m/h 0 %
17:00:00 clear sky 43.550 43.550 43.550 22 1.05 m/h 0 %
20:00:00 scattered clouds 40.310 40.310 40.310 27 2.08 m/h 0 %
23:00:00 broken clouds 38.140 38.140 38.140 36 4.31 m/h 0 %
26-Jul-2021 (Mon)
02:00:00 overcast clouds 35.220 35.220 35.220 49 4.41 m/h 0 %
05:00:00 broken clouds 32.810 32.810 32.810 63 5.59 m/h 0 %
08:00:00 broken clouds 34.590 34.590 34.590 56 4.95 m/h 0 %
11:00:00 overcast clouds 39.100 39.100 39.100 40 2.87 m/h 0 %
14:00:00 scattered clouds 42.660 42.660 42.660 30 1.7 m/h 0 %
17:00:00 scattered clouds 43.130 43.130 43.130 27 1.52 m/h 0 %
20:00:00 broken clouds 39.450 39.450 39.450 36 5.9 m/h 0 %
23:00:00 broken clouds 35.930 35.930 35.930 47 6.11 m/h 0 %
27-Jul-2021 (Tue)
02:00:00 broken clouds 33.290 33.290 33.290 60 6.35 m/h 0 %
05:00:00 broken clouds 31.050 31.050 31.050 71 6.22 m/h 0 %
08:00:00 overcast clouds 31.120 31.120 31.120 70 5.63 m/h 0 %
11:00:00 overcast clouds 37.340 37.340 37.340 45 2.63 m/h 0 %
14:00:00 broken clouds 40.630 40.630 40.630 34 3.79 m/h 0 %
17:00:00 broken clouds 39.460 39.460 39.460 37 5.73 m/h 0 %
20:00:00 light rain 35.130 35.130 35.130 49 7.26 m/h 36 %
23:00:00 broken clouds 32.260 32.260 32.260 60 6.64 m/h 0 %
28-Jul-2021 (Wed)
02:00:00 scattered clouds 31.390 31.390 31.390 61 3.45 m/h 0 %
05:00:00 light rain 28.300 28.300 28.300 78 4.52 m/h 113 %
08:00:00 overcast clouds 29.560 29.560 29.560 74 5.1 m/h 0 %
11:00:00 light rain 33.530 33.530 33.530 56 4.35 m/h 20 %
14:00:00 light rain 33.780 33.780 33.780 55 5.02 m/h 72 %
17:00:00 light rain 29.650 29.650 29.650 74 7.54 m/h 152 %
20:00:00 moderate rain 27.490 27.490 27.490 84 5.45 m/h 413 %
23:00:00 light rain 27.360 27.360 27.360 84 3.54 m/h 198 %
29-Jul-2021 (Thu)
02:00:00 light rain 26.540 26.540 26.540 89 3.02 m/h 213 %
05:00:00 moderate rain 25.860 25.860 25.860 92 2.62 m/h 710 %
08:00:00 light rain 27.000 27.000 27.000 86 2.68 m/h 232 %
11:00:00 overcast clouds 30.390 30.390 30.390 70 1.52 m/h 0 %
14:00:00 scattered clouds 34.220 34.220 34.220 55 1.23 m/h 0 %


Bhera's Tourist Spots

Historical Places in Bhera

Famous Cities (60)